Eldred, Pennsylvania
Current Conditions -  °F | °C
As of 6:53 AM on Sunday 21 Dec 2014 (Local Time) from KBFD Reporting Station
Overcast Overcast  
Wind Chill: 23°   Ceiling: 1100
Heat Index: 23°   Visibility: 9mi
Dew Point: 19°   Wind: 3mph
Humidity: 85%   Direction: 260°W
Pressure: 30.22"   Gusts: NA
Location:  41.96°N, 78.39°W
Report Text: KBFD 211153Z AUTO 26003KT 9SM OVC011 M05/M07 A3022 RMK AO2 SLP262 T10501072 11050 21056 53007
Loading
Personal Weather Stations






























Interactive Weather Map New forecast layout! Learn more

10-Day Weather Forecast

Advertisements
Track Severe Weather on mobile